Airfield :
LOGIN :

Register | Disclaimer

   EN    FR    IT 

 










Legend :    VFR   Marginal VFR   IFR   Intensive IFR   Very Intensive IFR
Visi :
Ceiling :
>= 8 km
>= 3000ft
5 to 8 km
1000 to 3000 ft
1500m to 5 km
500 to 1000 ft
800 to 1500m
200 to 500 ft
< 800m
< 200 ft
Symbols :   Thunderstorms  Fog  Heavy snow  Heavy precipitations  Wind > 20 kt
SIGMETs :     Misc.  Thunderstorms  Icing  Turbulence  Mountain Waves  Volcanic Ashes






- Airport Elevation : 529 ft
- IATA code : CHR


LFLX - Chateauroux

CURRENT METAR :
  • 120530Z AUTO 09005KT CAVOK 22/16 Q1012 NOSIG

EXPIRED METARs :
  • 120500Z AUTO 09006KT CAVOK 22/16 Q1012 NOSIG
  • 120430Z AUTO 10004KT CAVOK 20/17 Q1012 NOSIG
  • 120400Z AUTO VRB03KT CAVOK 20/17 Q1012 NOSIG
  • 120330Z AUTO 07005KT CAVOK 21/17 Q1012 NOSIG
  • 120300Z AUTO 09004KT CAVOK 20/17 Q1012 NOSIG

TAF TAF LFLX
Valid from the 12 at 06:00 until the 13 at 12:00 UTC


120500Z 1206/1312 VRB05KT CAVOK
PROB40
TEMPO 1210/1214 21010G20KT -SHRA SCT090TCU
PROB30
TEMPO 1217/1224 VRB20G40KT -TSRA BKN070CB
PROB40
TEMPO 1303/1307 4000 SHRA SCT060TCU
BECMG 1307/1310 21010KT BKN025
PROB30
TEMPO 1310/1312 21015G30KT SHRA SCT030TCU



MET'MAP, your aeronautical weather chart ! - Copyright ORBIFLY December 2007 - Disclaimer

ORBIFLY MET'MAP TEAM :

Programming & Development : Alexandra Zaïnal
Concept & original design : Baudouin d'Aumeries
Assistance for programming : Marc-Olivier Méhu
Technical & hardware support : Manuel Goepfert

Contact : metmap@orbifly.com




SOURCES & CREDITS :

   NOAA